Time;durP1;ratioP1;P1;durP2;ratioP2;P2;SDS_P1;SDS_P2;PMS_P1;PMS_P2;Temp;Humidity;BMP_temperature;BMP_pressure;BME280_temperature;BME280_humidity;BME280_pressure;Samples;Min_cycle;Max_cycle;Signal;HPM_P1;HPM_P2
2023/02/12 00:02:05;;;;;;;;;;;5.10;99.90;;;;;;5091350;28;19918;-66
2023/02/12 00:04:31;;;;;;;;;;;5.10;99.90;;;;;;5101919;28;20011;-65
2023/02/12 00:06:56;;;;;;;;;;;5.20;99.90;;;;;;5101806;28;19915;-65
2023/02/12 00:09:22;;;;;;;;;;;5.20;99.90;;;;;;5102017;28;19912;-65
2023/02/12 00:11:48;;;;;;;;;;;5.30;99.90;;;;;;5100898;28;20340;-62
2023/02/12 00:14:13;;;;;;;;;;;5.20;99.90;;;;;;5101075;28;19912;-65
2023/02/12 00:16:39;;;;;;;;;;;5.00;99.90;;;;;;5101268;28;19961;-64
2023/02/12 00:19:05;;;;;;;;;;;5.00;99.90;;;;;;5102574;28;19953;-64
2023/02/12 00:21:31;;;;;;;;;;;5.00;99.90;;;;;;5104216;28;19954;-65
2023/02/12 00:23:56;;;;;;;;;;;5.00;99.90;;;;;;5103398;28;19912;-65
2023/02/12 00:26:23;;;;;;;;;;;5.00;99.90;;;;;;5106458;28;20087;-65
2023/02/12 00:28:49;;;;;;;;;;;5.00;99.90;;;;;;5103060;28;19908;-65
2023/02/12 00:31:23;;;;;;;;;;;5.00;99.90;;;;;;5111382;28;19943;-65
2023/02/12 00:33:49;;;;;;;;;;;5.00;99.90;;;;;;5102409;28;19990;-65
2023/02/12 00:36:18;;;;;;;;;;;5.00;99.90;;;;;;5100968;28;20002;-63
2023/02/12 00:38:44;;;;;;;;;;;5.00;99.90;;;;;;5085526;28;19912;-63
2023/02/12 00:41:09;;;;;;;;;;;4.90;99.90;;;;;;5073250;28;19912;-62
2023/02/12 00:43:35;;;;;;;;;;;5.00;99.90;;;;;;5100415;28;19908;-61
2023/02/12 00:46:01;;;;;;;;;;;4.90;99.90;;;;;;5100197;28;19911;-64
2023/02/12 00:48:26;;;;;;;;;;;4.90;99.90;;;;;;5102798;28;19919;-65
2023/02/12 00:50:52;;;;;;;;;;;4.90;99.90;;;;;;5098556;28;19912;-64
2023/02/12 00:53:18;;;;;;;;;;;5.00;99.90;;;;;;5101855;28;19912;-65
2023/02/12 00:55:44;;;;;;;;;;;5.00;99.90;;;;;;5103739;28;19915;-65
2023/02/12 00:58:10;;;;;;;;;;;4.90;99.90;;;;;;5104852;28;19909;-64
2023/02/12 01:00:36;;;;;;;;;;;4.90;99.90;;;;;;5104729;28;19908;-65
2023/02/12 01:03:02;;;;;;;;;;;4.90;99.90;;;;;;5105564;28;19942;-63
2023/02/12 01:05:28;;;;;;;;;;;4.90;99.90;;;;;;5099784;28;19923;-63
2023/02/12 01:07:54;;;;;;;;;;;4.80;99.90;;;;;;5099881;28;20402;-65
2023/02/12 01:10:20;;;;;;;;;;;4.80;99.90;;;;;;5102446;28;19911;-65
2023/02/12 01:12:46;;;;;;;;;;;4.90;99.90;;;;;;5101780;28;20057;-64
2023/02/12 01:15:12;;;;;;;;;;;4.90;99.90;;;;;;5100777;28;20464;-64
2023/02/12 01:17:38;;;;;;;;;;;4.90;99.90;;;;;;5102266;28;19931;-64
2023/02/12 01:20:06;;;;;;;;;;;4.70;99.90;;;;;;5105896;28;19908;-64
2023/02/12 01:22:33;;;;;;;;;;;4.60;99.90;;;;;;5098312;28;19922;-64
2023/02/12 01:24:59;;;;;;;;;;;4.70;99.90;;;;;;5101028;28;20412;-65
2023/02/12 01:27:24;;;;;;;;;;;4.70;99.90;;;;;;5099239;28;19908;-63
2023/02/12 01:29:50;;;;;;;;;;;4.70;99.90;;;;;;5097874;28;19930;-63
2023/02/12 01:32:15;;;;;;;;;;;4.70;99.90;;;;;;5098657;28;19912;-63
2023/02/12 01:34:41;;;;;;;;;;;4.70;99.90;;;;;;5102132;28;19912;-63
2023/02/12 01:37:07;;;;;;;;;;;4.70;99.90;;;;;;5102748;28;19918;-63
2023/02/12 01:39:33;;;;;;;;;;;4.70;99.90;;;;;;5103346;28;19943;-60
2023/02/12 01:41:59;;;;;;;;;;;4.70;99.90;;;;;;5099215;28;20433;-62
2023/02/12 01:44:27;;;;;;;;;;;4.70;99.90;;;;;;5103472;28;19971;-62
2023/02/12 01:47:03;;;;;;;;;;;4.60;99.90;;;;;;5101088;28;19920;-64
2023/02/12 01:49:32;;;;;;;;;;;4.60;99.90;;;;;;5100550;28;20341;-62
2023/02/12 01:52:00;;;;;;;;;;;4.60;99.90;;;;;;5107072;28;20204;-64
2023/02/12 01:54:25;;;;;;;;;;;4.70;99.90;;;;;;5103112;28;20318;-61
2023/02/12 01:56:52;;;;;;;;;;;4.80;99.90;;;;;;5085581;28;19912;-64
2023/02/12 01:59:18;;;;;;;;;;;4.70;99.90;;;;;;5064496;28;19912;-64
2023/02/12 02:01:44;;;;;;;;;;;4.60;99.90;;;;;;5081489;28;20074;-64
2023/02/12 02:04:16;;;;;;;;;;;4.80;99.90;;;;;;5078212;28;20419;-64
2023/02/12 02:06:52;;;;;;;;;;;4.70;99.90;;;;;;5080845;28;19971;-65
2023/02/12 02:09:18;;;;;;;;;;;4.60;99.90;;;;;;5084032;28;19960;-64
2023/02/12 02:14:31;;;;;;;;;;;4.40;99.90;;;;;;5086104;28;19943;-63
2023/02/12 02:17:03;;;;;;;;;;;4.50;99.90;;;;;;5087145;28;20252;-64
2023/02/12 02:19:47;;;;;;;;;;;4.60;99.90;;;;;;5082807;28;19912;-62
2023/02/12 02:22:23;;;;;;;;;;;4.50;99.90;;;;;;5093521;28;20215;-63
2023/02/12 02:24:51;;;;;;;;;;;4.50;99.90;;;;;;5087920;28;19948;-64
2023/02/12 02:27:29;;;;;;;;;;;4.40;99.90;;;;;;5100187;28;19911;-64
2023/02/12 02:30:13;;;;;;;;;;;4.40;99.90;;;;;;5105450;28;20009;-64
2023/02/12 02:32:42;;;;;;;;;;;4.40;99.90;;;;;;5102363;28;20290;-62
2023/02/12 02:35:17;;;;;;;;;;;4.40;99.90;;;;;;5091481;28;20028;-62
2023/02/12 02:37:54;;;;;;;;;;;4.40;99.90;;;;;;5084826;28;19908;-63
2023/02/12 02:40:22;;;;;;;;;;;4.40;99.90;;;;;;5104338;28;19912;-64
2023/02/12 02:43:10;;;;;;;;;;;4.40;99.90;;;;;;5102374;28;19950;-60
2023/02/12 02:45:45;;;;;;;;;;;4.40;99.90;;;;;;5089436;28;19916;-64
2023/02/12 02:48:14;;;;;;;;;;;4.30;99.90;;;;;;5099417;28;19931;-63
2023/02/12 02:50:41;;;;;;;;;;;4.30;99.90;;;;;;5070825;28;19913;-64
2023/02/12 02:53:10;;;;;;;;;;;4.40;99.90;;;;;;5087010;28;19911;-65
2023/02/12 02:55:41;;;;;;;;;;;4.40;99.90;;;;;;5088708;28;19955;-64
2023/02/12 02:58:09;;;;;;;;;;;4.40;99.90;;;;;;5086778;28;19916;-63
2023/02/12 03:00:40;;;;;;;;;;;4.30;99.90;;;;;;5089159;28;19957;-60
2023/02/12 03:03:27;;;;;;;;;;;4.30;99.90;;;;;;5086960;28;19916;-63
2023/02/12 03:05:56;;;;;;;;;;;4.40;99.90;;;;;;5086298;28;19923;-62
2023/02/12 03:08:25;;;;;;;;;;;4.50;99.90;;;;;;5089212;28;19918;-63
2023/02/12 03:11:00;;;;;;;;;;;4.40;99.90;;;;;;5089674;28;19912;-62
2023/02/12 03:13:31;;;;;;;;;;;4.40;99.90;;;;;;5088493;28;19917;-64
2023/02/12 03:15:59;;;;;;;;;;;4.40;99.90;;;;;;5087965;28;19987;-64
2023/02/12 03:18:32;;;;;;;;;;;4.50;99.90;;;;;;5086131;28;19931;-63
2023/02/12 03:21:00;;;;;;;;;;;4.40;99.90;;;;;;5089683;28;19919;-63
2023/02/12 03:23:27;;;;;;;;;;;4.30;99.90;;;;;;5086704;28;19988;-62
2023/02/12 03:25:58;;;;;;;;;;;4.40;99.90;;;;;;5088701;28;19916;-64
2023/02/12 03:28:31;;;;;;;;;;;4.50;99.90;;;;;;5101980;28;19980;-63
2023/02/12 03:31:02;;;;;;;;;;;4.40;99.90;;;;;;5100715;28;19924;-64
2023/02/12 03:33:34;;;;;;;;;;;4.40;99.90;;;;;;5100131;28;19908;-62
2023/02/12 03:36:09;;;;;;;;;;;4.40;99.90;;;;;;5102713;28;19915;-63
2023/02/12 03:38:44;;;;;;;;;;;4.40;99.90;;;;;;5101842;28;19965;-63
2023/02/12 03:41:24;;;;;;;;;;;4.30;99.90;;;;;;5101866;28;19908;-64
2023/02/12 03:43:56;;;;;;;;;;;4.30;99.90;;;;;;5099166;28;19944;-65
2023/02/12 03:46:39;;;;;;;;;;;4.20;99.90;;;;;;5103143;28;19949;-64
2023/02/12 03:49:18;;;;;;;;;;;4.30;99.90;;;;;;5101238;28;19958;-64
2023/02/12 03:51:44;;;;;;;;;;;4.30;99.90;;;;;;5101206;28;19908;-63
2023/02/12 03:54:11;;;;;;;;;;;4.30;99.90;;;;;;5105943;28;19939;-64
2023/02/12 03:56:41;;;;;;;;;;;4.30;99.90;;;;;;5103349;28;19931;-64
2023/02/12 03:59:07;;;;;;;;;;;4.30;99.90;;;;;;5103955;28;19919;-64
2023/02/12 04:01:33;;;;;;;;;;;4.40;99.90;;;;;;5084182;28;21774;-63
2023/02/12 04:04:01;;;;;;;;;;;4.40;99.90;;;;;;5086625;28;20003;-63
2023/02/12 04:06:30;;;;;;;;;;;4.40;99.90;;;;;;5086717;28;20334;-63
2023/02/12 04:08:57;;;;;;;;;;;4.40;99.90;;;;;;5084031;28;19912;-64
2023/02/12 04:11:32;;;;;;;;;;;4.30;99.90;;;;;;5086373;28;20370;-62
2023/02/12 04:14:01;;;;;;;;;;;4.30;99.90;;;;;;5088404;28;20026;-64
2023/02/12 04:16:43;;;;;;;;;;;4.40;99.90;;;;;;5082961;28;19923;-65
2023/02/12 04:19:11;;;;;;;;;;;4.30;99.90;;;;;;5085750;28;19912;-63
2023/02/12 04:21:37;;;;;;;;;;;4.30;99.90;;;;;;5086852;28;19924;-64
2023/02/12 04:24:09;;;;;;;;;;;4.30;99.90;;;;;;5088659;28;19912;-64
2023/02/12 04:26:50;;;;;;;;;;;4.40;99.90;;;;;;5085984;28;19965;-65
2023/02/12 04:29:19;;;;;;;;;;;4.40;99.90;;;;;;5084744;28;19923;-65
2023/02/12 04:32:03;;;;;;;;;;;4.40;99.90;;;;;;5085013;28;19912;-60
2023/02/12 04:34:35;;;;;;;;;;;4.30;99.90;;;;;;5097878;28;20434;-64
2023/02/12 04:37:10;;;;;;;;;;;4.30;99.90;;;;;;5087523;28;20333;-62
2023/02/12 04:39:36;;;;;;;;;;;4.30;99.90;;;;;;5087357;28;20011;-63
2023/02/12 04:42:02;;;;;;;;;;;4.40;99.90;;;;;;5087168;28;19963;-65
2023/02/12 04:44:30;;;;;;;;;;;4.50;99.90;;;;;;5088760;28;19912;-64
2023/02/12 04:46:55;;;;;;;;;;;4.50;99.90;;;;;;5066403;28;19964;-63
2023/02/12 04:49:22;;;;;;;;;;;4.50;99.90;;;;;;5082760;28;19935;-64
2023/02/12 04:51:48;;;;;;;;;;;4.50;99.90;;;;;;5084588;28;19923;-64
2023/02/12 04:54:14;;;;;;;;;;;4.50;99.90;;;;;;5087194;28;19927;-63
2023/02/12 04:56:40;;;;;;;;;;;4.50;99.90;;;;;;5085848;28;19912;-65
2023/02/12 04:59:06;;;;;;;;;;;4.50;99.90;;;;;;5081848;28;19975;-65
2023/02/12 05:01:35;;;;;;;;;;;4.60;99.90;;;;;;5085657;28;20368;-63
2023/02/12 05:04:01;;;;;;;;;;;4.70;99.90;;;;;;5070733;28;19942;-61
2023/02/12 05:06:29;;;;;;;;;;;4.70;99.90;;;;;;5087124;28;19917;-65
2023/02/12 05:08:55;;;;;;;;;;;4.70;99.90;;;;;;5082964;28;19912;-64
2023/02/12 05:11:20;;;;;;;;;;;4.70;99.90;;;;;;5084141;28;19928;-63
2023/02/12 05:13:50;;;;;;;;;;;4.60;99.90;;;;;;5087675;28;19930;-64
2023/02/12 05:16:16;;;;;;;;;;;4.60;99.90;;;;;;5082566;28;19958;-64
2023/02/12 05:18:42;;;;;;;;;;;4.70;99.90;;;;;;5083214;28;19959;-62
2023/02/12 05:21:08;;;;;;;;;;;4.60;99.90;;;;;;5083743;28;19912;-64
2023/02/12 05:23:35;;;;;;;;;;;4.40;99.90;;;;;;5082608;28;19919;-64
2023/02/12 05:26:01;;;;;;;;;;;4.40;99.90;;;;;;5087312;28;19920;-64
2023/02/12 05:28:28;;;;;;;;;;;4.50;99.90;;;;;;5083511;28;19911;-62
2023/02/12 05:30:54;;;;;;;;;;;4.50;99.90;;;;;;5089323;28;19923;-65
2023/02/12 05:33:19;;;;;;;;;;;4.50;99.90;;;;;;5088215;28;19912;-61
2023/02/12 05:35:45;;;;;;;;;;;4.50;99.90;;;;;;5086792;28;19979;-64
2023/02/12 05:38:10;;;;;;;;;;;4.40;99.90;;;;;;5084646;28;21730;-62
2023/02/12 05:40:37;;;;;;;;;;;4.40;99.90;;;;;;5085469;28;19916;-64
2023/02/12 05:43:02;;;;;;;;;;;4.40;99.90;;;;;;5090155;28;19962;-65
2023/02/12 05:45:28;;;;;;;;;;;4.40;99.90;;;;;;5092987;28;19963;-61
2023/02/12 05:47:54;;;;;;;;;;;4.30;99.90;;;;;;5090468;28;19912;-64
2023/02/12 05:50:20;;;;;;;;;;;4.40;99.90;;;;;;5088269;28;19908;-64
2023/02/12 05:52:45;;;;;;;;;;;4.40;99.90;;;;;;5085973;28;20015;-64
2023/02/12 05:55:11;;;;;;;;;;;4.50;99.90;;;;;;5091922;28;19920;-65
2023/02/12 05:57:37;;;;;;;;;;;4.50;99.90;;;;;;5090949;28;20647;-64
2023/02/12 06:00:04;;;;;;;;;;;4.40;99.90;;;;;;5085197;28;19912;-63
2023/02/12 06:02:29;;;;;;;;;;;4.50;99.90;;;;;;5087237;28;20500;-65
2023/02/12 06:04:55;;;;;;;;;;;4.40;99.90;;;;;;5089542;28;19912;-65
2023/02/12 06:07:21;;;;;;;;;;;4.30;99.90;;;;;;5087267;28;19942;-63
2023/02/12 06:09:47;;;;;;;;;;;4.30;99.90;;;;;;5086947;28;19979;-64
2023/02/12 06:12:13;;;;;;;;;;;4.30;99.90;;;;;;5093956;28;19912;-64
2023/02/12 06:14:39;;;;;;;;;;;4.20;99.90;;;;;;5089550;28;19935;-64
2023/02/12 06:17:05;;;;;;;;;;;4.20;99.90;;;;;;5089918;28;19934;-64
2023/02/12 06:19:31;;;;;;;;;;;4.30;99.90;;;;;;5091036;28;19980;-62
2023/02/12 06:21:56;;;;;;;;;;;4.20;99.90;;;;;;5093990;28;20340;-63
2023/02/12 06:24:22;;;;;;;;;;;4.10;99.90;;;;;;5066269;28;19926;-65
2023/02/12 06:26:49;;;;;;;;;;;4.10;99.90;;;;;;5091130;28;19917;-63
2023/02/12 06:29:15;;;;;;;;;;;4.10;99.90;;;;;;5091460;28;19912;-63
2023/02/12 06:31:41;;;;;;;;;;;4.10;99.90;;;;;;5095772;28;20369;-64
2023/02/12 06:34:10;;;;;;;;;;;4.10;99.90;;;;;;5087612;28;19965;-63
2023/02/12 06:36:43;;;;;;;;;;;4.10;99.90;;;;;;5087341;28;19916;-64
2023/02/12 06:39:09;;;;;;;;;;;4.20;99.90;;;;;;5071448;28;21036;-64
2023/02/12 06:41:35;;;;;;;;;;;4.10;99.90;;;;;;5088057;28;19935;-65
2023/02/12 06:44:01;;;;;;;;;;;4.00;99.90;;;;;;5086558;28;19924;-65
2023/02/12 06:46:26;;;;;;;;;;;4.00;99.90;;;;;;5076631;28;19920;-64
2023/02/12 06:48:56;;;;;;;;;;;4.00;99.90;;;;;;5074395;28;19920;-65
2023/02/12 06:51:22;;;;;;;;;;;4.00;99.90;;;;;;5092805;28;19933;-64
2023/02/12 06:53:48;;;;;;;;;;;4.10;99.90;;;;;;5090975;28;19919;-65
2023/02/12 06:56:14;;;;;;;;;;;4.10;99.90;;;;;;5089382;28;20226;-64
2023/02/12 06:58:41;;;;;;;;;;;4.20;99.90;;;;;;5092676;28;20026;-65
2023/02/12 07:01:09;;;;;;;;;;;4.30;99.90;;;;;;5087783;28;19917;-65
2023/02/12 07:03:35;;;;;;;;;;;4.30;99.90;;;;;;5071755;28;19968;-65
2023/02/12 07:06:02;;;;;;;;;;;4.40;99.90;;;;;;5084978;28;19928;-64
2023/02/12 07:08:28;;;;;;;;;;;4.40;99.90;;;;;;5087648;28;19912;-65
2023/02/12 07:10:53;;;;;;;;;;;4.50;99.90;;;;;;5087850;28;20357;-65
2023/02/12 07:13:19;;;;;;;;;;;4.50;99.90;;;;;;5085410;28;20085;-64
2023/02/12 07:15:44;;;;;;;;;;;4.60;99.90;;;;;;5086019;28;19916;-65
2023/02/12 07:18:10;;;;;;;;;;;4.60;99.90;;;;;;5087313;28;19912;-65
2023/02/12 07:20:36;;;;;;;;;;;4.70;99.90;;;;;;5085359;28;19938;-62
2023/02/12 07:23:01;;;;;;;;;;;4.80;99.90;;;;;;5090498;28;19920;-62
2023/02/12 07:25:27;;;;;;;;;;;4.70;99.90;;;;;;5096367;28;20404;-64
2023/02/12 07:27:53;;;;;;;;;;;4.80;99.90;;;;;;5090526;28;20328;-63
2023/02/12 07:30:18;;;;;;;;;;;4.90;99.90;;;;;;5093505;28;19912;-65
2023/02/12 07:32:44;;;;;;;;;;;5.00;99.90;;;;;;5086778;28;19950;-65
2023/02/12 07:35:10;;;;;;;;;;;5.10;99.90;;;;;;5088586;28;20580;-64
2023/02/12 07:37:35;;;;;;;;;;;5.10;99.90;;;;;;5090629;28;19917;-64
2023/02/12 07:40:01;;;;;;;;;;;5.20;99.90;;;;;;5085211;28;19965;-62
2023/02/12 07:42:28;;;;;;;;;;;5.40;99.90;;;;;;5091020;28;19920;-63
2023/02/12 07:44:53;;;;;;;;;;;5.50;99.90;;;;;;5087154;28;19916;-64
2023/02/12 07:47:19;;;;;;;;;;;5.50;99.90;;;;;;5088269;28;19916;-64
2023/02/12 07:49:44;;;;;;;;;;;5.50;99.90;;;;;;5087399;28;19989;-63
2023/02/12 07:52:11;;;;;;;;;;;5.50;99.90;;;;;;5087904;28;19993;-65
2023/02/12 07:54:36;;;;;;;;;;;5.60;99.90;;;;;;5085350;28;19916;-64
2023/02/12 07:57:02;;;;;;;;;;;5.60;99.90;;;;;;5086550;28;19919;-64
2023/02/12 07:59:28;;;;;;;;;;;5.90;99.90;;;;;;5099832;28;19912;-65
2023/02/12 08:01:55;;;;;;;;;;;5.80;99.90;;;;;;5087522;28;20378;-62
2023/02/12 08:04:22;;;;;;;;;;;5.90;99.90;;;;;;5085172;28;19912;-63
2023/02/12 08:06:48;;;;;;;;;;;6.00;99.90;;;;;;5084575;28;19916;-63
2023/02/12 08:09:16;;;;;;;;;;;6.00;99.90;;;;;;5089664;28;19912;-65
2023/02/12 08:11:42;;;;;;;;;;;6.10;99.90;;;;;;5087649;28;20275;-65
2023/02/12 08:14:09;;;;;;;;;;;6.20;99.90;;;;;;5086098;28;19972;-64
2023/02/12 08:16:36;;;;;;;;;;;6.20;99.90;;;;;;5085313;28;19916;-65
2023/02/12 08:19:01;;;;;;;;;;;6.40;99.90;;;;;;5088482;28;19912;-64
2023/02/12 08:21:27;;;;;;;;;;;6.60;99.90;;;;;;5084748;28;19931;-64
2023/02/12 08:23:53;;;;;;;;;;;6.50;99.90;;;;;;5087248;28;19976;-65
2023/02/12 08:26:29;;;;;;;;;;;6.50;99.90;;;;;;5090158;28;19955;-65
2023/02/12 08:28:56;;;;;;;;;;;6.50;99.90;;;;;;5083525;28;19979;-66
2023/02/12 08:31:24;;;;;;;;;;;6.50;99.90;;;;;;5086875;28;19935;-64
2023/02/12 08:33:50;;;;;;;;;;;6.60;99.90;;;;;;5086287;28;19965;-65
2023/02/12 08:36:17;;;;;;;;;;;6.80;99.90;;;;;;5090062;28;20336;-64
2023/02/12 08:38:43;;;;;;;;;;;6.70;99.90;;;;;;5088240;28;19916;-64
2023/02/12 08:41:10;;;;;;;;;;;6.70;99.90;;;;;;5087187;28;20337;-65
2023/02/12 08:43:36;;;;;;;;;;;6.90;99.90;;;;;;5089973;28;19917;-65
2023/02/12 08:46:03;;;;;;;;;;;7.00;99.90;;;;;;5088013;28;19978;-65
2023/02/12 08:48:28;;;;;;;;;;;7.10;99.90;;;;;;5086774;28;19920;-65
2023/02/12 08:50:54;;;;;;;;;;;7.10;99.90;;;;;;5085327;28;19919;-63
2023/02/12 08:53:20;;;;;;;;;;;7.30;99.90;;;;;;5085542;28;19919;-65
2023/02/12 08:55:48;;;;;;;;;;;7.40;99.90;;;;;;5088167;28;20579;-64
2023/02/12 08:58:14;;;;;;;;;;;7.40;99.90;;;;;;5086664;28;19923;-66
2023/02/12 09:00:40;;;;;;;;;;;7.50;99.90;;;;;;5084089;28;19920;-66
2023/02/12 09:03:05;;;;;;;;;;;7.60;99.90;;;;;;5086616;28;20215;-66
2023/02/12 09:05:31;;;;;;;;;;;7.70;99.90;;;;;;5087489;28;19916;-66
2023/02/12 09:07:57;;;;;;;;;;;7.70;99.90;;;;;;5087687;28;20067;-64
2023/02/12 09:10:22;;;;;;;;;;;7.80;99.90;;;;;;5087590;28;19985;-66
2023/02/12 09:12:48;;;;;;;;;;;7.70;99.90;;;;;;5081295;28;19920;-66
2023/02/12 09:15:14;;;;;;;;;;;7.80;99.90;;;;;;5084155;28;19920;-65
2023/02/12 09:17:42;;;;;;;;;;;8.00;99.90;;;;;;5090072;28;20365;-65
2023/02/12 09:20:07;;;;;;;;;;;8.00;99.90;;;;;;5088522;28;19912;-65
2023/02/12 09:22:36;;;;;;;;;;;8.10;99.90;;;;;;5088790;28;20029;-64
2023/02/12 09:25:03;;;;;;;;;;;8.20;99.90;;;;;;5093170;28;19912;-63
2023/02/12 09:27:29;;;;;;;;;;;8.20;99.90;;;;;;5082510;28;19924;-65
2023/02/12 09:29:54;;;;;;;;;;;8.20;99.90;;;;;;5083213;28;20943;-66
2023/02/12 09:32:20;;;;;;;;;;;8.10;99.90;;;;;;5081603;28;19919;-66
2023/02/12 09:34:46;;;;;;;;;;;8.10;99.90;;;;;;5086076;28;20023;-65
2023/02/12 09:37:11;;;;;;;;;;;8.10;99.90;;;;;;5083139;28;19951;-65
2023/02/12 09:39:37;;;;;;;;;;;8.10;99.90;;;;;;5069617;28;21656;-66
2023/02/12 09:42:02;;;;;;;;;;;8.20;99.90;;;;;;5087127;28;19916;-66
2023/02/12 09:44:35;;;;;;;;;;;8.30;99.90;;;;;;5086366;28;19912;-65
2023/02/12 09:47:24;;;;;;;;;;;8.20;99.90;;;;;;5082301;28;19948;-66
2023/02/12 09:49:52;;;;;;;;;;;8.30;99.90;;;;;;5084015;28;20067;-65
2023/02/12 09:52:23;;;;;;;;;;;8.30;99.90;;;;;;5078210;28;19942;-66
2023/02/12 09:54:49;;;;;;;;;;;8.40;99.90;;;;;;5081255;28;19926;-65
2023/02/12 09:57:18;;;;;;;;;;;8.40;99.90;;;;;;5077930;28;19958;-66
2023/02/12 10:00:06;;;;;;;;;;;8.40;99.90;;;;;;5078103;28;19913;-65
2023/02/12 10:02:34;;;;;;;;;;;8.40;99.90;;;;;;5074428;28;19959;-67
2023/02/12 10:04:59;;;;;;;;;;;8.30;99.90;;;;;;5084691;28;19912;-66
2023/02/12 10:07:37;;;;;;;;;;;8.40;99.90;;;;;;5088515;28;19965;-66
2023/02/12 10:10:09;;;;;;;;;;;8.40;99.90;;;;;;5086161;28;19984;-66
2023/02/12 10:12:46;;;;;;;;;;;8.50;99.90;;;;;;5072369;28;19920;-67
2023/02/12 10:15:11;;;;;;;;;;;8.60;99.90;;;;;;5088281;28;19912;-67
2023/02/12 10:17:44;;;;;;;;;;;8.60;99.90;;;;;;5088995;28;19917;-66
2023/02/12 10:20:28;;;;;;;;;;;8.60;99.90;;;;;;5086118;28;19963;-66
2023/02/12 10:23:00;;;;;;;;;;;8.60;99.90;;;;;;5071891;28;19973;-67
2023/02/12 10:25:25;;;;;;;;;;;8.70;99.90;;;;;;5084540;28;19919;-66
2023/02/12 10:27:53;;;;;;;;;;;8.70;99.90;;;;;;5069619;28;19912;-64
2023/02/12 10:30:21;;;;;;;;;;;8.80;99.90;;;;;;5087169;28;19912;-66
2023/02/12 10:32:49;;;;;;;;;;;8.80;99.90;;;;;;5082358;28;19920;-67
2023/02/12 10:35:16;;;;;;;;;;;8.90;99.90;;;;;;5087084;28;19938;-64
2023/02/12 10:37:52;;;;;;;;;;;9.00;99.90;;;;;;5085940;28;19912;-66
2023/02/12 10:40:29;;;;;;;;;;;9.10;99.90;;;;;;5082050;28;19913;-66
2023/02/12 10:42:56;;;;;;;;;;;9.20;99.90;;;;;;5081485;28;19916;-66
2023/02/12 10:45:28;;;;;;;;;;;9.40;99.90;;;;;;5083853;28;19923;-66
2023/02/12 10:48:03;;;;;;;;;;;9.50;99.90;;;;;;5089668;28;20324;-66
2023/02/12 10:50:41;;;;;;;;;;;9.60;99.90;;;;;;5086511;28;19952;-66
2023/02/12 10:53:11;;;;;;;;;;;9.60;99.90;;;;;;5100174;28;20403;-65
2023/02/12 10:55:36;;;;;;;;;;;9.70;99.90;;;;;;5096301;28;19958;-65
2023/02/12 10:58:03;;;;;;;;;;;9.70;99.90;;;;;;5096188;28;19908;-66
2023/02/12 11:00:29;;;;;;;;;;;9.80;99.90;;;;;;5096988;28;19908;-66
2023/02/12 11:03:03;;;;;;;;;;;9.80;99.90;;;;;;5083623;28;19912;-66
2023/02/12 11:05:30;;;;;;;;;;;9.70;99.90;;;;;;5077318;28;19962;-66
2023/02/12 11:07:58;;;;;;;;;;;9.70;99.90;;;;;;5086565;28;19920;-65
2023/02/12 11:10:31;;;;;;;;;;;9.60;99.90;;;;;;5077724;28;20380;-66
2023/02/12 11:13:01;;;;;;;;;;;9.60;99.90;;;;;;5083250;28;20326;-65
2023/02/12 11:15:31;;;;;;;;;;;9.60;99.90;;;;;;5084727;28;19927;-66
2023/02/12 11:18:01;;;;;;;;;;;9.60;99.90;;;;;;5084407;28;20363;-66
2023/02/12 11:20:28;;;;;;;;;;;9.60;99.90;;;;;;5068208;28;20389;-66
2023/02/12 11:22:58;;;;;;;;;;;9.70;99.90;;;;;;5084460;28;20274;-66
2023/02/12 11:25:25;;;;;;;;;;;9.70;99.90;;;;;;5082167;28;19931;-66
2023/02/12 11:28:17;;;;;;;;;;;9.60;99.90;;;;;;5082332;28;19947;-67
2023/02/12 11:30:51;;;;;;;;;;;9.70;99.90;;;;;;5078598;28;19913;-64
2023/02/12 11:33:22;;;;;;;;;;;9.60;99.90;;;;;;5083333;28;20370;-66
2023/02/12 11:35:50;;;;;;;;;;;9.50;99.90;;;;;;5087628;28;19913;-65
2023/02/12 11:38:23;;;;;;;;;;;9.50;99.90;;;;;;5081641;28;19917;-65
2023/02/12 11:40:50;;;;;;;;;;;9.50;99.90;;;;;;5065753;28;19929;-64
2023/02/12 11:43:17;;;;;;;;;;;9.50;99.90;;;;;;5081730;28;19912;-66
2023/02/12 11:45:45;;;;;;;;;;;9.40;99.90;;;;;;5080528;28;19923;-66
2023/02/12 11:48:18;;;;;;;;;;;9.40;99.90;;;;;;5080467;28;19971;-66
2023/02/12 11:50:48;;;;;;;;;;;9.40;99.90;;;;;;5078604;28;19923;-66
2023/02/12 11:53:20;;;;;;;;;;;9.40;99.90;;;;;;5080443;28;19920;-66
2023/02/12 11:55:53;;;;;;;;;;;9.40;99.90;;;;;;5081550;28;19916;-66
2023/02/12 11:58:23;;;;;;;;;;;9.40;99.90;;;;;;5082439;28;20334;-66
2023/02/12 12:01:07;;;;;;;;;;;9.40;99.90;;;;;;5082708;28;19919;-64
2023/02/12 12:03:42;;;;;;;;;;;9.30;99.90;;;;;;5080419;28;20321;-65
2023/02/12 12:06:26;;;;;;;;;;;9.50;99.90;;;;;;5081202;28;20049;-66
2023/02/12 12:09:10;;;;;;;;;;;9.40;99.90;;;;;;5080087;28;19944;-66
2023/02/12 12:11:54;;;;;;;;;;;9.40;99.90;;;;;;5081796;28;19916;-66
2023/02/12 12:14:19;;;;;;;;;;;9.40;99.90;;;;;;5080911;28;19951;-64
2023/02/12 12:19:54;;;;;;;;;;;9.40;99.90;;;;;;5080544;28;19933;-66
2023/02/12 12:22:32;;;;;;;;;;;9.40;99.90;;;;;;5080702;28;19931;-66
2023/02/12 12:25:07;;;;;;;;;;;9.50;99.90;;;;;;5079092;28;19963;-65
2023/02/12 12:28:01;;;;;;;;;;;9.60;99.90;;;;;;5078240;28;19924;-66
2023/02/12 12:30:35;;;;;;;;;;;9.50;99.90;;;;;;5068438;28;21353;-66
2023/02/12 12:33:03;;;;;;;;;;;9.50;99.90;;;;;;5076337;28;19958;-66
2023/02/12 12:35:39;;;;;;;;;;;9.50;99.90;;;;;;5086778;28;19912;-66
2023/02/12 12:38:11;;;;;;;;;;;9.50;99.90;;;;;;5087722;28;19916;-66
2023/02/12 12:40:45;;;;;;;;;;;9.50;99.90;;;;;;5086937;28;19923;-66
2023/02/12 12:43:26;;;;;;;;;;;9.40;99.90;;;;;;5075446;28;20474;-66
2023/02/12 12:45:55;;;;;;;;;;;9.40;99.90;;;;;;5083158;28;20466;-66
2023/02/12 12:48:24;;;;;;;;;;;9.40;99.90;;;;;;5070399;28;20039;-66
2023/02/12 12:51:08;;;;;;;;;;;9.50;99.90;;;;;;5071989;28;20262;-65
2023/02/12 12:53:42;;;;;;;;;;;9.50;99.90;;;;;;5095802;28;19912;-66
2023/02/12 12:56:20;;;;;;;;;;;9.60;99.90;;;;;;5111224;28;19911;-66
2023/02/12 12:59:01;;;;;;;;;;;9.70;99.90;;;;;;5109909;28;19968;-66
2023/02/12 13:01:39;;;;;;;;;;;9.70;99.90;;;;;;5099389;28;19916;-66
2023/02/12 13:04:08;;;;;;;;;;;9.70;99.90;;;;;;5110080;28;20006;-66
2023/02/12 13:06:42;;;;;;;;;;;9.70;99.90;;;;;;5090395;28;19928;-66
2023/02/12 13:09:20;;;;;;;;;;;9.70;99.90;;;;;;5085795;28;19931;-66
2023/02/12 13:11:55;;;;;;;;;;;9.80;99.90;;;;;;5092990;28;19974;-66
2023/02/12 13:14:28;;;;;;;;;;;9.80;99.90;;;;;;5105193;28;20404;-66
2023/02/12 13:16:59;;;;;;;;;;;9.80;99.90;;;;;;5107414;28;19988;-66
2023/02/12 13:20:00;;;;;;;;;;;9.80;99.90;;;;;;5105809;28;19907;-66
2023/02/12 13:22:40;;;;;;;;;;;9.70;99.90;;;;;;4994357;28;19961;-66
2023/02/12 13:25:22;;;;;;;;;;;9.80;99.90;;;;;;5094332;28;19919;-65
2023/02/12 13:27:49;;;;;;;;;;;9.80;99.90;;;;;;5092306;28;19919;-67
2023/02/12 13:30:20;;;;;;;;;;;9.80;99.90;;;;;;5110018;28;19908;-66
2023/02/12 13:33:05;;;;;;;;;;;9.90;99.90;;;;;;5085963;28;20382;-66
2023/02/12 13:35:31;;;;;;;;;;;10.00;99.90;;;;;;5091340;28;20331;-66
2023/02/12 13:37:57;;;;;;;;;;;10.00;99.90;;;;;;5104764;28;20007;-67
2023/02/12 13:40:24;;;;;;;;;;;10.00;99.90;;;;;;5100860;28;19913;-67
2023/02/12 13:43:08;;;;;;;;;;;10.00;99.90;;;;;;5109001;28;20002;-67
2023/02/12 13:45:53;;;;;;;;;;;9.90;99.90;;;;;;5104549;28;20019;-67
2023/02/12 13:48:18;;;;;;;;;;;10.00;99.90;;;;;;5105206;28;19914;-68
2023/02/12 13:50:57;;;;;;;;;;;10.00;99.90;;;;;;5105613;28;19912;-68
2023/02/12 13:53:41;;;;;;;;;;;10.10;99.90;;;;;;5074325;28;19920;-66
2023/02/12 13:56:18;;;;;;;;;;;10.20;99.90;;;;;;5091729;28;20630;-67
2023/02/12 13:58:49;;;;;;;;;;;10.30;99.90;;;;;;5091053;28;20502;-69
2023/02/12 14:01:35;;;;;;;;;;;10.40;99.90;;;;;;5094756;28;19919;-65
2023/02/12 14:04:19;;;;;;;;;;;10.50;99.90;;;;;;5087998;28;20353;-66
2023/02/12 14:06:52;;;;;;;;;;;10.50;99.90;;;;;;5093890;28;19922;-67
2023/02/12 14:09:20;;;;;;;;;;;10.60;99.90;;;;;;5085100;28;19920;-67
2023/02/12 14:11:48;;;;;;;;;;;10.60;99.90;;;;;;5088322;28;20044;-66
2023/02/12 14:14:23;;;;;;;;;;;10.50;99.90;;;;;;5092389;28;20389;-64
2023/02/12 14:16:49;;;;;;;;;;;10.70;99.90;;;;;;5093236;28;20289;-68
2023/02/12 14:19:33;;;;;;;;;;;10.60;99.90;;;;;;5086075;28;19920;-67
2023/02/12 14:21:59;;;;;;;;;;;10.70;99.90;;;;;;5093247;28;20365;-67
2023/02/12 14:24:37;;;;;;;;;;;10.70;99.90;;;;;;5094072;28;19912;-66
2023/02/12 14:27:15;;;;;;;;;;;10.80;99.90;;;;;;5080172;28;19981;-66
2023/02/12 14:29:58;;;;;;;;;;;10.80;99.90;;;;;;5094945;28;20333;-67
2023/02/12 14:32:43;;;;;;;;;;;10.80;99.90;;;;;;5106612;28;19911;-66
2023/02/12 14:35:28;;;;;;;;;;;10.80;99.90;;;;;;5106697;28;19912;-67
2023/02/12 14:37:59;;;;;;;;;;;10.80;99.90;;;;;;5099575;28;19943;-66
2023/02/12 14:40:33;;;;;;;;;;;10.80;99.90;;;;;;5098463;28;19918;-66
2023/02/12 14:43:18;;;;;;;;;;;10.90;99.90;;;;;;5087145;28;19912;-66
2023/02/12 14:45:43;;;;;;;;;;;10.90;99.90;;;;;;5101915;28;20369;-68
2023/02/12 14:48:29;;;;;;;;;;;11.00;99.90;;;;;;5108323;28;20017;-68
2023/02/12 14:50:55;;;;;;;;;;;11.10;99.90;;;;;;5088295;28;20481;-66